Time;durP1;ratioP1;P1;durP2;ratioP2;P2;SDS_P1;SDS_P2;PMS_P1;PMS_P2;Temp;Humidity;BMP_temperature;BMP_pressure;BME280_temperature;BME280_humidity;BME280_pressure;Samples;Min_cycle;Max_cycle;Signal;HPM_P1;HPM_P2
2023/01/01 00:01:44;;;;;;;6.28;3.50;;;;;;;15.77;54.74;100211.69;6243372;22;20023;-77
2023/01/01 00:04:16;;;;;;;14.00;4.97;;;;;;;15.75;54.77;100216.19;6216290;22;20023;-74
2023/01/01 00:06:44;;;;;;;9.27;4.00;;;;;;;15.68;55.28;100217.31;6239371;22;20098;-77
2023/01/01 00:11:56;;;;;;;5.95;3.00;;;;;;;15.79;54.71;100206.38;6218611;22;20693;-75
2023/01/01 00:14:22;;;;;;;9.45;3.15;;;;;;;15.77;54.64;100216.97;6240274;22;20018;-77
2023/01/01 00:16:55;;;;;;;14.55;3.70;;;;;;;15.80;54.37;100219.50;6215100;22;20024;-77
2023/01/01 00:19:22;;;;;;;16.93;4.30;;;;;;;15.84;54.60;100218.50;6243195;22;20432;-77
2023/01/01 00:21:49;;;;;;;6.95;2.90;;;;;;;15.97;53.88;100221.53;6240807;22;20635;-76
2023/01/01 00:24:42;;;;;;;8.27;4.50;;;;;;;15.97;53.60;100220.66;6215901;22;20486;-77
2023/01/01 00:27:09;;;;;;;7.28;3.17;;;;;;;16.04;53.53;100225.66;6241496;22;20039;-75
2023/01/01 00:29:39;;;;;;;8.40;3.03;;;;;;;15.97;53.33;100226.81;6241735;22;20012;-75
2023/01/01 00:32:08;;;;;;;6.47;2.85;;;;;;;15.96;53.31;100221.59;6240402;22;20082;-76
2023/01/01 00:34:38;;;;;;;7.35;2.97;;;;;;;16.02;53.36;100221.34;6241443;22;20008;-76
2023/01/01 00:37:05;;;;;;;4.47;2.70;;;;;;;16.00;53.41;100210.84;6215873;22;20019;-75
2023/01/01 00:39:31;;;;;;;5.63;3.05;;;;;;;16.16;52.79;100228.75;6242363;22;20012;-76
2023/01/01 00:42:00;;;;;;;10.93;2.65;;;;;;;16.16;52.57;100219.03;6241168;22;20456;-77
2023/01/01 00:44:27;;;;;;;9.20;2.58;;;;;;;16.18;52.52;100224.28;6241872;22;20047;-76
2023/01/01 00:46:59;;;;;;;5.63;2.38;;;;;;;16.24;52.64;100218.72;6241606;22;20331;-76
2023/01/01 00:49:26;;;;;;;7.00;2.10;;;;;;;16.26;52.42;100197.56;6243568;22;20011;-75
2023/01/01 00:51:53;;;;;;;3.22;1.80;;;;;;;16.27;52.55;100223.91;6243987;22;20098;-76
2023/01/01 00:54:20;;;;;;;4.13;2.72;;;;;;;16.20;52.87;100201.28;6219918;22;20011;-75
2023/01/01 00:56:46;;;;;;;3.88;2.30;;;;;;;16.18;52.77;100200.50;6218401;22;20012;-76
2023/01/01 00:59:13;;;;;;;7.78;2.75;;;;;;;16.18;52.77;100198.72;6244266;22;20898;-76
2023/01/01 01:01:39;;;;;;;4.15;2.13;;;;;;;16.28;52.49;100193.94;6243442;22;20020;-77
2023/01/01 01:04:07;;;;;;;11.02;2.15;;;;;;;16.28;52.42;100220.34;6244086;22;20023;-76
2023/01/01 01:06:35;;;;;;;8.30;2.55;;;;;;;16.28;52.38;100215.06;6218366;22;20066;-75
2023/01/01 01:09:01;;;;;;;6.10;2.15;;;;;;;16.32;52.38;100229.88;6243669;22;20544;-76
2023/01/01 01:11:27;;;;;;;6.10;2.03;;;;;;;16.30;52.32;100228.22;6218106;22;20095;-75
2023/01/01 01:13:56;;;;;;;5.25;1.90;;;;;;;16.31;52.55;100232.56;6243901;22;20015;-75
2023/01/01 01:16:31;;;;;;;6.75;2.30;;;;;;;16.34;52.61;100232.44;6241921;22;20008;-75
2023/01/01 01:19:01;;;;;;;9.35;3.10;;;;;;;16.47;51.84;100230.19;6218657;22;20012;-75
2023/01/01 01:21:34;;;;;;;12.50;2.88;;;;;;;16.37;52.31;100224.38;6242896;22;20814;-76
2023/01/01 01:24:03;;;;;;;6.88;2.83;;;;;;;16.30;52.62;100220.28;6219035;22;20051;-76
2023/01/01 01:26:32;;;;;;;8.00;2.58;;;;;;;16.36;52.28;100239.41;6217676;22;20074;-76
2023/01/01 01:28:59;;;;;;;4.18;2.45;;;;;;;16.40;52.39;100241.91;6244088;22;20008;-76
2023/01/01 01:31:29;;;;;;;4.63;2.60;;;;;;;16.35;52.57;100252.66;6244346;22;20138;-75
2023/01/01 01:33:56;;;;;;;7.68;3.10;;;;;;;16.32;52.37;100229.88;6244314;22;20011;-75
2023/01/01 01:36:22;;;;;;;8.57;3.03;;;;;;;16.30;52.25;100246.69;6243564;22;20079;-76
2023/01/01 01:38:49;;;;;;;5.15;3.78;;;;;;;16.24;52.81;100236.38;6242122;22;20660;-76
2023/01/01 01:41:19;;;;;;;7.18;2.58;;;;;;;16.15;53.12;100274.56;6243607;22;20015;-75
2023/01/01 01:43:52;;;;;;;7.55;2.95;;;;;;;16.23;52.56;100254.00;6218918;22;20007;-75
2023/01/01 01:46:43;;;;;;;6.72;2.50;;;;;;;16.15;53.30;100259.59;6242461;22;20065;-76
2023/01/01 01:49:28;;;;;;;10.05;2.55;;;;;;;16.09;53.36;100262.44;6218075;22;20311;-77
2023/01/01 01:51:56;;;;;;;8.43;2.78;;;;;;;16.20;53.62;100254.09;6242608;22;20007;-75
2023/01/01 01:54:26;;;;;;;10.80;4.63;;;;;;;16.19;53.35;100231.25;6244942;22;20091;-75
2023/01/01 01:57:05;;;;;;;9.48;2.92;;;;;;;16.08;53.82;100246.69;6242971;22;20043;-75
2023/01/01 01:59:43;;;;;;;6.07;3.78;;;;;;;15.98;54.30;100239.09;6243827;22;20652;-77
2023/01/01 02:02:27;;;;;;;10.77;4.22;;;;;;;15.93;54.31;100241.06;6242941;22;20636;-76
2023/01/01 02:04:54;;;;;;;12.63;4.28;;;;;;;15.86;54.53;100218.44;6271192;22;20016;-75
2023/01/01 02:07:23;;;;;;;7.22;3.50;;;;;;;15.93;54.03;100248.09;6270087;22;20310;-75
2023/01/01 02:09:50;;;;;;;6.82;3.38;;;;;;;15.82;54.55;100251.16;6244453;22;20037;-76
2023/01/01 02:12:17;;;;;;;8.45;3.00;;;;;;;15.87;54.09;100257.97;6243345;22;20015;-76
2023/01/01 02:14:46;;;;;;;7.32;3.25;;;;;;;15.77;54.19;100245.16;6244347;22;20141;-76
2023/01/01 02:17:27;;;;;;;7.30;3.22;;;;;;;15.82;53.82;100262.56;6242356;22;20018;-76
2023/01/01 02:20:33;;;;;;;8.68;3.63;;;;;;;15.93;53.28;100272.75;6242383;22;20024;-76
2023/01/01 02:23:26;;;;;;;5.50;2.72;;;;;;;15.87;53.64;100263.25;6268874;22;20373;-76
2023/01/01 02:26:18;;;;;;;11.07;4.03;;;;;;;15.83;53.40;100259.00;6270702;22;20533;-77
2023/01/01 02:29:14;;;;;;;7.20;3.78;;;;;;;15.88;53.22;100264.13;6243911;22;20027;-75
2023/01/01 02:31:50;;;;;;;9.75;3.20;;;;;;;15.85;53.05;100261.59;6244585;22;20016;-76
2023/01/01 02:34:22;;;;;;;9.43;3.55;;;;;;;15.90;52.76;100274.63;6271160;22;20023;-75
2023/01/01 02:36:53;;;;;;;4.20;2.70;;;;;;;15.90;52.50;100285.19;6218538;22;20069;-75
2023/01/01 02:39:22;;;;;;;8.63;3.92;;;;;;;15.82;52.90;100270.47;6218023;22;20015;-75
2023/01/01 02:41:54;;;;;;;9.35;3.20;;;;;;;15.91;51.93;100264.00;6242685;22;20043;-75
2023/01/01 02:44:25;;;;;;;4.70;3.33;;;;;;;15.85;52.24;100293.25;6270554;22;20035;-76
2023/01/01 02:46:51;;;;;;;9.02;3.55;;;;;;;15.92;51.81;100278.94;6242728;22;20050;-76
2023/01/01 02:49:17;;;;;;;9.77;2.83;;;;;;;15.87;51.43;100275.59;6242988;22;20007;-75
2023/01/01 02:52:09;;;;;;;12.68;4.13;;;;;;;15.96;51.34;100277.03;6242847;22;20022;-74
2023/01/01 02:54:49;;;;;;;5.82;2.83;;;;;;;15.90;51.12;100262.28;6244156;22;20045;-75
2023/01/01 02:57:49;;;;;;;11.77;3.40;;;;;;;15.90;51.23;100278.13;6217171;22;20007;-75
2023/01/01 03:00:23;;;;;;;6.43;3.05;;;;;;;15.74;51.58;100266.38;6217702;22;20428;-74
2023/01/01 03:03:14;;;;;;;6.63;3.30;;;;;;;15.73;51.64;100276.06;6243748;22;20073;-77
2023/01/01 03:08:58;;;;;;;6.22;3.20;;;;;;;15.61;51.89;100284.44;6246498;22;20030;-75
2023/01/01 03:11:32;;;;;;;6.88;3.00;;;;;;;15.68;51.49;100286.81;6268556;22;20011;-75
2023/01/01 03:14:29;;;;;;;5.45;3.25;;;;;;;15.68;51.26;100267.44;6243807;22;20038;-76
2023/01/01 03:17:39;;;;;;;7.32;2.75;;;;;;;15.70;51.07;100276.19;6243610;22;20008;-74
2023/01/01 03:20:19;;;;;;;7.88;3.08;;;;;;;15.69;51.08;100279.75;6265755;22;20438;-75
2023/01/01 03:22:49;;;;;;;6.85;3.42;;;;;;;15.65;50.93;100278.13;6243884;22;20022;-75
2023/01/01 03:25:30;;;;;;;4.63;2.63;;;;;;;15.66;50.64;100271.94;6244536;22;20007;-76
2023/01/01 03:28:04;;;;;;;10.13;3.33;;;;;;;15.73;50.31;100280.50;6243980;22;20012;-75
2023/01/01 03:30:32;;;;;;;7.88;3.22;;;;;;;15.77;50.07;100284.75;6244278;22;20023;-75
2023/01/01 03:33:16;;;;;;;6.45;3.35;;;;;;;15.86;49.53;100279.16;6243108;22;20012;-75
2023/01/01 03:35:57;;;;;;;5.32;2.88;;;;;;;15.74;50.06;100280.44;6242740;22;20065;-75
2023/01/01 03:38:31;;;;;;;4.47;2.78;;;;;;;15.65;49.82;100288.69;6242749;22;20016;-75
2023/01/01 03:41:10;;;;;;;18.20;3.40;;;;;;;15.61;49.93;100269.47;6243598;22;20374;-74
2023/01/01 03:43:48;;;;;;;17.00;3.42;;;;;;;15.68;49.22;100288.56;6242458;22;20012;-75
2023/01/01 03:46:21;;;;;;;6.78;2.67;;;;;;;15.64;49.32;100279.88;6242996;22;20058;-74
2023/01/01 03:48:56;;;;;;;9.60;2.90;;;;;;;15.48;49.66;100281.38;6243752;22;20019;-75
2023/01/01 03:51:41;;;;;;;11.45;2.80;;;;;;;15.52;49.36;100270.63;6244379;22;20261;-75
2023/01/01 03:54:37;;;;;;;6.82;2.47;;;;;;;15.46;49.70;100285.81;6269758;22;20512;-75
2023/01/01 03:57:25;;;;;;;5.28;1.88;;;;;;;15.38;49.76;100283.44;6269233;22;20007;-74
2023/01/01 04:00:15;;;;;;;5.18;1.52;;;;;;;15.32;49.95;100287.19;6243140;22;20050;-75
2023/01/01 04:03:09;;;;;;;5.30;2.53;;;;;;;15.34;49.76;100293.28;6217147;22;20114;-74
2023/01/01 04:05:39;;;;;;;3.53;2.25;;;;;;;15.38;49.59;100300.16;6242691;22;20016;-75
2023/01/01 04:08:07;;;;;;;8.05;2.63;;;;;;;15.44;49.25;100290.31;6242965;22;20820;-75
2023/01/01 04:10:38;;;;;;;8.27;3.13;;;;;;;15.33;49.72;100285.38;6217488;22;20323;-74
2023/01/01 04:13:06;;;;;;;6.45;2.42;;;;;;;15.38;49.52;100308.06;6243930;22;20017;-75
2023/01/01 04:15:34;;;;;;;2.97;1.90;;;;;;;15.33;49.71;100310.00;6218091;22;20016;-75
2023/01/01 04:18:01;;;;;;;3.25;1.65;;;;;;;15.35;49.83;100302.03;6242187;22;20019;-76
2023/01/01 04:20:28;;;;;;;2.65;1.77;;;;;;;15.28;50.18;100308.41;6241634;22;20658;-75
2023/01/01 04:22:59;;;;;;;12.02;2.53;;;;;;;15.44;49.48;100307.00;6214984;22;20015;-75
2023/01/01 04:25:27;;;;;;;6.15;1.80;;;;;;;15.33;49.90;100303.84;6214583;22;20065;-75
2023/01/01 04:27:54;;;;;;;5.70;1.80;;;;;;;15.37;49.72;100298.44;6241779;22;20019;-75
2023/01/01 04:30:20;;;;;;;4.93;1.90;;;;;;;15.30;50.24;100312.72;6269946;22;20022;-76
2023/01/01 04:32:47;;;;;;;2.08;1.70;;;;;;;15.27;50.44;100325.19;6270013;22;20012;-74
2023/01/01 04:35:15;;;;;;;6.47;2.53;;;;;;;15.26;50.16;100305.84;6218119;22;20008;-75
2023/01/01 04:37:43;;;;;;;6.60;1.98;;;;;;;15.29;50.08;100315.41;6243933;22;20012;-75
2023/01/01 04:40:11;;;;;;;3.15;1.55;;;;;;;15.20;50.40;100311.31;6270394;22;20077;-76
2023/01/01 04:42:38;;;;;;;6.47;1.85;;;;;;;15.13;50.92;100317.72;6241160;22;20091;-75
2023/01/01 04:45:05;;;;;;;4.25;2.28;;;;;;;15.09;51.04;100329.28;6241011;22;20362;-74
2023/01/01 04:47:32;;;;;;;1.50;1.25;;;;;;;15.15;50.73;100329.09;6242136;22;20016;-76
2023/01/01 04:49:59;;;;;;;5.47;2.47;;;;;;;15.10;50.88;100323.09;6217304;22;20015;-75
2023/01/01 04:52:25;;;;;;;2.50;1.23;;;;;;;15.05;51.08;100332.00;6217698;22;20015;-75
2023/01/01 04:54:51;;;;;;;4.18;1.75;;;;;;;15.09;51.19;100338.03;6244645;22;20016;-76
2023/01/01 04:57:18;;;;;;;3.50;1.63;;;;;;;15.12;50.83;100348.50;6270002;22;20103;-76
2023/01/01 04:59:44;;;;;;;3.25;1.65;;;;;;;15.18;50.98;100355.34;6243878;22;20102;-76
2023/01/01 05:02:11;;;;;;;3.35;1.35;;;;;;;15.08;51.17;100351.28;6243221;22;20026;-76
2023/01/01 05:04:37;;;;;;;9.00;1.55;;;;;;;15.08;51.00;100352.13;6242821;22;20026;-76
2023/01/01 05:07:04;;;;;;;3.40;1.90;;;;;;;15.14;50.99;100349.31;6240205;22;20027;-76
2023/01/01 05:09:30;;;;;;;5.00;1.50;;;;;;;15.08;51.25;100346.84;6215706;22;20019;-76
2023/01/01 05:11:57;;;;;;;3.50;1.75;;;;;;;15.06;51.15;100343.44;6218637;22;20018;-77
2023/01/01 05:14:23;;;;;;;4.53;2.13;;;;;;;15.11;51.02;100351.16;6245056;22;20016;-75
2023/01/01 05:16:50;;;;;;;3.03;1.67;;;;;;;15.19;50.76;100360.56;6218774;22;20020;-76
2023/01/01 05:19:16;;;;;;;9.40;1.67;;;;;;;15.05;51.74;100353.09;6270621;22;20011;-76
2023/01/01 05:21:44;;;;;;;4.35;1.85;;;;;;;15.06;51.46;100356.59;6242352;22;20042;-76
2023/01/01 05:24:11;;;;;;;2.90;1.27;;;;;;;15.10;51.21;100331.88;6216680;22;20019;-75
2023/01/01 05:26:41;;;;;;;1.55;1.10;;;;;;;14.98;51.47;100348.06;6242232;22;20867;-76
2023/01/01 05:29:08;;;;;;;2.10;1.58;;;;;;;14.93;51.84;100350.88;6241796;22;20022;-76
2023/01/01 05:31:36;;;;;;;3.28;1.17;;;;;;;15.01;51.38;100335.66;6242148;22;20427;-75
2023/01/01 05:34:05;;;;;;;2.22;1.10;;;;;;;14.93;51.80;100345.59;6218884;22;20020;-75
2023/01/01 05:36:38;;;;;;;2.97;1.15;;;;;;;14.95;51.88;100340.28;6216864;22;20019;-76
2023/01/01 05:39:11;;;;;;;2.08;1.02;;;;;;;14.96;51.82;100350.75;6243350;22;20015;-75
2023/01/01 05:41:38;;;;;;;2.00;0.90;;;;;;;15.05;51.38;100355.72;6242735;22;20090;-75
2023/01/01 05:44:07;;;;;;;1.58;0.80;;;;;;;15.03;51.49;100362.84;6242337;22;20666;-75
2023/01/01 05:46:34;;;;;;;5.05;1.63;;;;;;;15.11;51.60;100386.31;6216988;22;20012;-75
2023/01/01 05:49:00;;;;;;;2.20;1.13;;;;;;;15.12;51.56;100395.09;6244293;22;20016;-76
2023/01/01 05:51:30;;;;;;;3.95;1.92;;;;;;;15.15;51.35;100408.19;6244569;22;20019;-76
2023/01/01 05:53:57;;;;;;;3.22;0.98;;;;;;;15.13;51.54;100405.56;6244281;22;20106;-76
2023/01/01 05:56:24;;;;;;;3.30;1.33;;;;;;;15.16;51.28;100350.13;6270358;22;20019;-76
2023/01/01 05:58:51;;;;;;;6.97;1.35;;;;;;;15.16;51.62;100400.22;6217274;22;20081;-76
2023/01/01 06:01:22;;;;;;;3.28;1.20;;;;;;;15.05;51.82;100394.41;6241756;22;20027;-75
2023/01/01 06:03:50;;;;;;;2.97;1.08;;;;;;;15.18;51.47;100405.44;6243113;22;20020;-76
2023/01/01 06:06:20;;;;;;;5.70;1.13;;;;;;;15.08;51.79;100418.03;6244861;22;20023;-76
2023/01/01 06:08:58;;;;;;;1.55;0.77;;;;;;;15.10;51.63;100408.31;6244850;22;20373;-76
2023/01/01 06:11:25;;;;;;;5.43;1.38;;;;;;;15.13;51.51;100417.91;6270958;22;20007;-76
2023/01/01 06:13:58;;;;;;;2.08;0.90;;;;;;;15.09;51.89;100411.84;6244156;22;20081;-75
2023/01/01 06:16:26;;;;;;;1.88;0.98;;;;;;;14.95;52.38;100414.06;6243543;22;20018;-76
2023/01/01 06:18:53;;;;;;;8.43;1.17;;;;;;;14.86;52.80;100409.94;6244125;22;20027;-75
2023/01/01 06:21:22;;;;;;;0.95;0.85;;;;;;;14.81;52.72;100407.47;6218323;22;20016;-75
2023/01/01 06:23:49;;;;;;;0.68;0.50;;;;;;;14.91;52.75;100417.72;6243763;22;20008;-75
2023/01/01 06:26:22;;;;;;;2.60;0.55;;;;;;;14.91;52.49;100397.47;6242557;22;20451;-76
2023/01/01 06:28:49;;;;;;;2.88;0.80;;;;;;;14.88;52.49;100406.34;6243390;22;20016;-76
2023/01/01 06:31:19;;;;;;;2.53;1.15;;;;;;;14.88;52.73;100408.97;6240908;22;20019;-76
2023/01/01 06:33:47;;;;;;;3.50;1.27;;;;;;;14.80;53.11;100407.50;6243232;22;20019;-77
2023/01/01 06:36:16;;;;;;;2.20;0.68;;;;;;;14.75;52.94;100415.53;6240790;22;20023;-75
2023/01/01 06:38:47;;;;;;;1.38;0.73;;;;;;;14.70;53.42;100413.03;6241299;22;20019;-76
2023/01/01 06:41:18;;;;;;;3.47;0.70;;;;;;;14.67;53.44;100423.66;6239796;22;20007;-76
2023/01/01 06:43:46;;;;;;;3.80;0.95;;;;;;;14.74;53.22;100426.97;6241482;22;20049;-75
2023/01/01 06:46:28;;;;;;;2.97;0.90;;;;;;;14.71;53.28;100424.44;6239716;22;20019;-75
2023/01/01 06:48:58;;;;;;;0.60;0.50;;;;;;;14.63;53.65;100423.78;6242572;22;20008;-75
2023/01/01 06:51:38;;;;;;;1.73;0.73;;;;;;;14.64;53.44;100433.44;6267628;22;20023;-76
2023/01/01 06:54:06;;;;;;;2.22;0.70;;;;;;;14.54;53.95;100435.44;6241248;22;20012;-75
2023/01/01 06:56:42;;;;;;;2.75;0.90;;;;;;;14.45;54.19;100447.09;6238370;22;20018;-75
2023/01/01 06:59:11;;;;;;;2.50;0.80;;;;;;;14.44;54.23;100448.00;6238086;22;20023;-75
2023/01/01 07:01:42;;;;;;;2.75;0.82;;;;;;;14.42;54.40;100427.88;6237327;22;20077;-76
2023/01/01 07:04:14;;;;;;;4.60;0.43;;;;;;;14.41;54.45;100449.88;6241420;22;20012;-74
2023/01/01 07:06:41;;;;;;;4.53;1.17;;;;;;;14.28;54.88;100452.84;6241728;22;20069;-75
2023/01/01 07:09:13;;;;;;;3.25;0.85;;;;;;;14.24;55.17;100472.28;6242680;22;20017;-76
2023/01/01 07:11:43;;;;;;;1.65;0.43;;;;;;;14.21;55.05;100481.13;6243093;22;20012;-75
2023/01/01 07:14:10;;;;;;;3.30;1.00;;;;;;;14.18;55.43;100467.16;6243294;22;20016;-74
2023/01/01 07:16:37;;;;;;;3.85;0.80;;;;;;;14.09;55.54;100483.19;6241404;22;20110;-74
2023/01/01 07:19:03;;;;;;;1.60;0.60;;;;;;;14.03;55.94;100484.25;6269526;22;20115;-75
2023/01/01 07:21:47;;;;;;;2.33;1.23;;;;;;;14.12;55.56;100485.75;6216950;22;20572;-74
2023/01/01 07:24:19;;;;;;;1.00;0.50;;;;;;;14.07;55.67;100515.69;6215978;22;20115;-75
2023/01/01 07:26:47;;;;;;;3.58;0.68;;;;;;;13.98;56.09;100504.53;6242446;22;20007;-75
2023/01/01 07:29:14;;;;;;;4.68;1.05;;;;;;;14.19;55.31;100503.13;6246725;22;20083;-74
2023/01/01 07:31:43;;;;;;;3.85;0.70;;;;;;;14.24;55.17;100490.69;6244269;22;20012;-76
2023/01/01 07:34:17;;;;;;;2.58;0.77;;;;;;;14.27;55.24;100505.56;6244723;22;20665;-75
2023/01/01 07:36:44;;;;;;;3.38;0.70;;;;;;;14.25;55.58;100512.63;6241801;22;20065;-75
2023/01/01 07:39:11;;;;;;;2.17;0.95;;;;;;;14.24;55.65;100517.03;6242165;22;20544;-76
2023/01/01 07:41:37;;;;;;;2.97;0.75;;;;;;;14.29;55.44;100538.84;6240995;22;20382;-76
2023/01/01 07:44:04;;;;;;;2.45;0.63;;;;;;;14.36;55.23;100540.38;6244478;22;20018;-75
2023/01/01 07:46:31;;;;;;;1.63;0.90;;;;;;;14.33;55.48;100544.91;6243171;22;20018;-76
2023/01/01 07:48:57;;;;;;;3.10;0.98;;;;;;;14.48;55.00;100546.25;6243974;22;20061;-77
2023/01/01 07:51:24;;;;;;;4.45;0.70;;;;;;;14.53;54.95;100558.38;6243330;22;20016;-75
2023/01/01 07:53:50;;;;;;;0.63;0.52;;;;;;;14.53;54.84;100553.09;6243085;22;20007;-75
2023/01/01 07:56:16;;;;;;;5.85;0.85;;;;;;;14.52;55.14;100556.66;6241345;22;20524;-74
2023/01/01 07:58:43;;;;;;;3.33;0.82;;;;;;;14.50;55.29;100565.50;6243914;22;20683;-76
2023/01/01 08:01:14;;;;;;;1.83;0.68;;;;;;;14.49;55.39;100558.50;6243640;22;20030;-75
2023/01/01 08:03:40;;;;;;;4.47;1.33;;;;;;;14.48;55.45;100573.44;6242721;22;20012;-76
2023/01/01 08:06:13;;;;;;;1.45;0.70;;;;;;;14.47;55.61;100581.38;6243798;22;20016;-75
2023/01/01 08:08:40;;;;;;;3.03;0.98;;;;;;;14.46;56.17;100579.69;6219063;22;20012;-74
2023/01/01 08:11:06;;;;;;;2.63;0.80;;;;;;;14.55;55.63;100582.06;6270374;22;20022;-75
2023/01/01 08:13:33;;;;;;;3.25;0.98;;;;;;;14.55;55.47;100585.53;6242917;22;20019;-76
2023/01/01 08:16:00;;;;;;;1.80;0.90;;;;;;;14.58;55.48;100592.50;6269647;22;20073;-75
2023/01/01 08:18:26;;;;;;;2.13;1.13;;;;;;;14.56;55.46;100597.81;6244005;22;20461;-76
2023/01/01 08:20:53;;;;;;;3.85;0.90;;;;;;;14.57;55.40;100596.03;6243955;22;20019;-76
2023/01/01 08:23:19;;;;;;;2.97;0.90;;;;;;;14.58;55.47;100595.13;6269452;22;20008;-76
2023/01/01 08:25:46;;;;;;;2.45;0.63;;;;;;;14.58;55.66;100607.47;6242894;22;20020;-76
2023/01/01 08:28:12;;;;;;;0.70;0.52;;;;;;;14.57;55.67;100601.31;6243358;22;20015;-76
2023/01/01 08:30:38;;;;;;;1.60;1.23;;;;;;;14.52;55.90;100606.72;6270385;22;20018;-75
2023/01/01 08:33:05;;;;;;;1.30;1.02;;;;;;;14.48;56.02;100607.66;6241699;22;20094;-76
2023/01/01 08:35:31;;;;;;;4.22;0.98;;;;;;;14.45;56.24;100586.69;6269795;22;20334;-74
2023/01/01 08:37:58;;;;;;;3.30;0.85;;;;;;;14.52;55.92;100630.41;6217226;22;20725;-76
2023/01/01 08:40:24;;;;;;;2.30;0.70;;;;;;;14.55;55.66;100609.25;6218609;22;20291;-76
2023/01/01 08:42:51;;;;;;;2.53;1.60;;;;;;;14.56;56.01;100621.53;6270708;22;20018;-74
2023/01/01 08:45:17;;;;;;;2.65;1.50;;;;;;;14.47;56.53;100629.66;6271532;22;20012;-75
2023/01/01 08:47:43;;;;;;;1.02;0.82;;;;;;;14.48;56.63;100639.28;6270959;22;20019;-75
2023/01/01 08:50:10;;;;;;;6.95;1.48;;;;;;;14.43;56.95;100646.47;6244231;22;20023;-76
2023/01/01 08:52:36;;;;;;;3.92;0.90;;;;;;;14.50;56.48;100647.16;6243041;22;20019;-75
2023/01/01 08:55:03;;;;;;;4.80;1.20;;;;;;;14.51;56.71;100651.50;6243775;22;20081;-76
2023/01/01 08:57:31;;;;;;;2.20;0.95;;;;;;;14.41;57.26;100663.19;6242949;22;20019;-76
2023/01/01 08:59:57;;;;;;;4.07;1.10;;;;;;;14.39;57.47;100653.56;6217269;22;20011;-76
2023/01/01 09:02:24;;;;;;;1.75;0.85;;;;;;;14.38;57.80;100661.50;6241992;22;20019;-75
2023/01/01 09:04:50;;;;;;;0.98;0.95;;;;;;;14.43;57.60;100657.00;6243394;22;20012;-75
2023/01/01 09:07:17;;;;;;;2.40;0.68;;;;;;;14.38;57.67;100662.38;6270170;22;20430;-76
2023/01/01 09:09:43;;;;;;;5.45;0.90;;;;;;;14.36;58.09;100690.50;6220323;22;20454;-76
2023/01/01 09:12:16;;;;;;;4.22;1.08;;;;;;;14.36;58.31;100689.63;6272547;22;20572;-76
2023/01/01 09:14:42;;;;;;;1.55;0.50;;;;;;;14.43;58.11;100714.06;6220774;22;20542;-75
2023/01/01 09:17:09;;;;;;;3.85;1.00;;;;;;;14.45;58.59;100704.34;6219755;22;20023;-75
2023/01/01 09:19:35;;;;;;;4.68;1.02;;;;;;;14.30;59.49;100698.56;6246313;22;20015;-75
2023/01/01 09:22:02;;;;;;;0.88;0.88;;;;;;;14.31;59.99;100728.38;6272356;22;20442;-76
2023/01/01 09:24:28;;;;;;;4.28;0.73;;;;;;;14.27;60.76;100721.47;6245128;22;20015;-75
2023/01/01 09:26:54;;;;;;;4.53;1.08;;;;;;;14.18;61.32;100747.09;6244502;22;20062;-74
2023/01/01 09:29:21;;;;;;;3.00;0.77;;;;;;;14.11;61.99;100749.91;6243928;22;20011;-74
2023/01/01 09:31:48;;;;;;;2.03;1.13;;;;;;;13.99;63.54;100757.16;6243530;22;20016;-75
2023/01/01 09:34:16;;;;;;;2.08;1.30;;;;;;;13.83;66.24;100753.13;6244652;22;20462;-75
2023/01/01 09:36:43;;;;;;;2.38;1.08;;;;;;;13.57;68.87;100779.06;6219057;22;20011;-75
2023/01/01 09:39:14;;;;;;;3.58;1.27;;;;;;;13.39;71.24;100788.16;6245481;22;20366;-75
2023/01/01 09:42:15;;;;;;;3.13;1.23;;;;;;;13.20;73.88;100797.25;6244697;22;20081;-75
2023/01/01 09:45:09;;;;;;;2.40;1.23;;;;;;;12.96;74.66;100806.38;6272467;22;20017;-76
2023/01/01 09:47:43;;;;;;;2.22;0.50;;;;;;;12.85;72.91;100791.69;6244525;22;20035;-76
2023/01/01 09:50:20;;;;;;;2.53;0.68;;;;;;;12.76;72.36;100780.47;6219881;22;20020;-75
2023/01/01 09:53:00;;;;;;;3.78;0.90;;;;;;;12.76;71.96;100801.47;6245154;22;20062;-76
2023/01/01 09:55:38;;;;;;;2.05;1.20;;;;;;;12.76;72.53;100798.84;6245706;22;20061;-75
2023/01/01 09:58:04;;;;;;;2.50;0.65;;;;;;;12.71;73.50;100799.78;6245123;22;20081;-74
2023/01/01 10:00:34;;;;;;;1.40;0.73;;;;;;;12.71;74.46;100806.78;6220306;22;20038;-74
2023/01/01 10:03:16;;;;;;;1.80;1.13;;;;;;;12.65;76.12;100805.13;6242947;22;20020;-75
2023/01/01 10:06:22;;;;;;;1.90;0.75;;;;;;;12.60;77.29;100806.09;6243174;22;20012;-75
2023/01/01 10:09:03;;;;;;;1.30;0.80;;;;;;;12.57;78.89;100817.50;6245098;22;20007;-76
2023/01/01 10:11:40;;;;;;;2.88;1.25;;;;;;;12.47;81.63;100821.16;6245084;22;20115;-75
2023/01/01 10:14:26;;;;;;;1.92;1.10;;;;;;;12.31;84.05;100829.25;6245967;22;20014;-75
2023/01/01 10:16:56;;;;;;;1.85;1.13;;;;;;;12.16;87.00;100825.06;6244099;22;20069;-75
2023/01/01 10:19:43;;;;;;;1.98;0.95;;;;;;;12.05;89.91;100829.59;6271984;22;20016;-75
2023/01/01 10:22:24;;;;;;;6.32;1.00;;;;;;;11.94;92.04;100832.28;6242967;22;20065;-76
2023/01/01 10:25:02;;;;;;;4.13;1.33;;;;;;;11.85;94.05;100840.25;6245223;22;20100;-76
2023/01/01 10:27:38;;;;;;;2.83;1.35;;;;;;;11.76;95.19;100836.00;6244920;22;20039;-75
2023/01/01 10:30:16;;;;;;;3.67;1.08;;;;;;;11.76;97.33;100838.63;6244823;22;20024;-75
2023/01/01 10:32:43;;;;;;;3.13;1.02;;;;;;;11.69;97.73;100840.44;6244484;22;20008;-75
2023/01/01 10:35:29;;;;;;;2.47;0.90;;;;;;;11.69;99.72;100842.19;6244388;22;20019;-74
2023/01/01 10:38:00;;;;;;;3.53;1.45;;;;;;;11.66;100.00;100857.97;6244509;22;20073;-76
2023/01/01 10:40:29;;;;;;;1.75;1.45;;;;;;;11.57;100.00;100865.00;6244112;22;20012;-75
2023/01/01 10:42:59;;;;;;;2.75;1.20;;;;;;;11.51;100.00;100865.09;6244265;22;20418;-75
2023/01/01 10:46:00;;;;;;;;;;;;;;;;;;;;;
2023/01/01 10:48:41;;;;;;;3.97;1.85;;;;;;;11.23;100.00;100880.19;6248521;22;20084;-76
2023/01/01 10:51:19;;;;;;;6.03;1.48;;;;;;;11.07;100.00;100882.06;6271283;22;20371;-75
2023/01/01 10:53:54;;;;;;;4.63;1.70;;;;;;;11.02;100.00;100883.84;6219833;22;20007;-75
2023/01/01 10:56:46;;;;;;;5.82;1.45;;;;;;;10.98;100.00;100882.13;6240925;22;20011;-76
2023/01/01 11:00:02;;;;;;;;;;;;;;;;;;;;;
2023/01/01 11:06:36;;;;;;;4.82;1.38;;;;;;;10.92;100.00;100855.09;6255682;22;20015;-75
2023/01/01 11:09:45;;;;;;;;;;;;;;;;;;;;;
2023/01/01 11:12:27;;;;;;;4.35;1.50;;;;;;;11.18;100.00;100851.38;6233901;22;20015;-75
2023/01/01 11:15:41;;;;;;;3.58;1.60;;;;;;;11.29;100.00;100846.06;6248469;22;20538;-76
2023/01/01 11:18:25;;;;;;;2.65;1.60;;;;;;;11.41;100.00;100832.84;6243492;22;20020;-76
2023/01/01 11:21:05;;;;;;;2.65;1.48;;;;;;;11.46;100.00;100845.03;6219012;22;20015;-76
2023/01/01 11:23:44;;;;;;;4.45;1.23;;;;;;;11.45;100.00;100844.19;6217331;22;20123;-75
2023/01/01 11:26:13;;;;;;;3.92;1.33;;;;;;;11.42;100.00;100852.09;6240464;22;20111;-76
2023/01/01 11:29:25;;;;;;;6.80;1.33;;;;;;;11.38;100.00;100838.13;6267565;22;20043;-75
2023/01/01 11:32:01;;;;;;;3.65;1.05;;;;;;;11.41;99.88;100845.09;6215087;22;20095;-75
2023/01/01 11:34:43;;;;;;;1.67;1.00;;;;;;;11.42;99.14;100846.84;6241119;22;20057;-75
2023/01/01 11:37:52;;;;;;;4.05;0.82;;;;;;;11.40;99.49;100859.06;6214569;22;20077;-76
2023/01/01 11:40:23;;;;;;;3.10;0.85;;;;;;;11.37;99.34;100859.97;6202346;22;20035;-76
2023/01/01 11:43:07;;;;;;;1.08;0.57;;;;;;;11.35;99.73;100843.38;6240535;22;20020;-76
2023/01/01 11:45:42;;;;;;;;;;;;;;;11.37;99.47;100838.16;6245446;22;20016;-76
2023/01/01 11:48:26;;;;;;;2.72;0.50;;;;;;;11.38;99.30;100824.13;6244329;22;19922;-76
2023/01/01 11:50:56;;;;;;;2.30;1.00;;;;;;;11.40;99.00;100815.38;6245552;22;20154;-75
2023/01/01 11:53:22;;;;;;;2.40;0.70;;;;;;;11.44;98.71;100804.88;6270129;22;20087;-75
2023/01/01 11:56:03;;;;;;;2.55;0.80;;;;;;;11.45;98.37;100809.25;6242735;22;20315;-76
2023/01/01 11:59:13;;;;;;;0.98;0.73;;;;;;;11.47;98.88;100815.31;6269111;22;20038;-75
2023/01/01 12:01:49;;;;;;;1.27;0.93;;;;;;;11.45;99.28;100817.97;6243381;22;20673;-75
2023/01/01 12:04:28;;;;;;;3.65;1.00;;;;;;;11.48;99.10;100827.56;6243934;22;20015;-74
2023/01/01 12:07:13;;;;;;;1.75;0.80;;;;;;;11.40;99.77;100845.97;6243747;22;20022;-75